sensor_id;sensor_type;location;lat;lon;timestamp;P1;durP1;ratioP1;P2;durP2;ratioP2
51692;SDS011;37777;53.066;21.638;2022-11-21T00:00:38;35.53;;;13.50;;
51692;SDS011;37777;53.066;21.638;2022-11-21T00:07:40;43.28;;;15.30;;
51692;SDS011;37777;53.066;21.638;2022-11-21T00:14:42;46.90;;;17.02;;
51692;SDS011;37777;53.066;21.638;2022-11-21T00:21:43;48.47;;;15.82;;
51692;SDS011;37777;53.066;21.638;2022-11-21T00:28:49;43.05;;;15.65;;
51692;SDS011;37777;53.066;21.638;2022-11-21T00:35:51;61.67;;;16.38;;
51692;SDS011;37777;53.066;21.638;2022-11-21T00:42:52;37.75;;;15.05;;
51692;SDS011;37777;53.066;21.638;2022-11-21T00:49:54;39.97;;;13.52;;
51692;SDS011;37777;53.066;21.638;2022-11-21T00:56:56;47.55;;;15.30;;
51692;SDS011;37777;53.066;21.638;2022-11-21T01:03:58;33.60;;;13.38;;
51692;SDS011;37777;53.066;21.638;2022-11-21T01:11:03;40.58;;;12.75;;
51692;SDS011;37777;53.066;21.638;2022-11-21T01:18:05;38.63;;;15.30;;
51692;SDS011;37777;53.066;21.638;2022-11-21T01:25:07;41.90;;;15.05;;
51692;SDS011;37777;53.066;21.638;2022-11-21T01:32:09;37.47;;;14.68;;
51692;SDS011;37777;53.066;21.638;2022-11-21T01:39:11;38.30;;;14.80;;
51692;SDS011;37777;53.066;21.638;2022-11-21T01:46:13;36.92;;;15.88;;
51692;SDS011;37777;53.066;21.638;2022-11-21T01:53:15;52.70;;;16.13;;
51692;SDS011;37777;53.066;21.638;2022-11-21T02:00:18;41.38;;;15.75;;
51692;SDS011;37777;53.066;21.638;2022-11-21T02:07:22;43.58;;;15.93;;
51692;SDS011;37777;53.066;21.638;2022-11-21T02:14:25;39.10;;;16.05;;
51692;SDS011;37777;53.066;21.638;2022-11-21T02:28:29;40.50;;;14.65;;
51692;SDS011;37777;53.066;21.638;2022-11-21T02:35:32;43.88;;;15.18;;
51692;SDS011;37777;53.066;21.638;2022-11-21T02:42:37;44.38;;;16.15;;
51692;SDS011;37777;53.066;21.638;2022-11-21T02:49:53;55.80;;;19.40;;
51692;SDS011;37777;53.066;21.638;2022-11-21T02:56:55;38.33;;;15.63;;
51692;SDS011;37777;53.066;21.638;2022-11-21T03:03:58;48.25;;;19.40;;
51692;SDS011;37777;53.066;21.638;2022-11-21T03:11:00;59.67;;;21.85;;
51692;SDS011;37777;53.066;21.638;2022-11-21T03:18:02;61.60;;;20.50;;
51692;SDS011;37777;53.066;21.638;2022-11-21T03:25:04;32.25;;;14.57;;
51692;SDS011;37777;53.066;21.638;2022-11-21T03:32:08;57.63;;;22.08;;
51692;SDS011;37777;53.066;21.638;2022-11-21T03:39:10;65.13;;;22.38;;
51692;SDS011;37777;53.066;21.638;2022-11-21T03:46:12;64.70;;;23.08;;
51692;SDS011;37777;53.066;21.638;2022-11-21T03:53:14;59.80;;;21.60;;
51692;SDS011;37777;53.066;21.638;2022-11-21T04:00:15;69.30;;;24.27;;
51692;SDS011;37777;53.066;21.638;2022-11-21T04:07:17;69.05;;;24.17;;
51692;SDS011;37777;53.066;21.638;2022-11-21T04:14:19;69.15;;;24.02;;
51692;SDS011;37777;53.066;21.638;2022-11-21T04:21:21;50.97;;;20.50;;
51692;SDS011;37777;53.066;21.638;2022-11-21T04:28:23;68.25;;;23.30;;
51692;SDS011;37777;53.066;21.638;2022-11-21T04:35:25;60.08;;;23.13;;
51692;SDS011;37777;53.066;21.638;2022-11-21T04:42:28;60.70;;;21.50;;
51692;SDS011;37777;53.066;21.638;2022-11-21T04:49:30;64.10;;;25.02;;
51692;SDS011;37777;53.066;21.638;2022-11-21T04:56:31;72.30;;;23.90;;
51692;SDS011;37777;53.066;21.638;2022-11-21T05:03:34;74.85;;;21.10;;
51692;SDS011;37777;53.066;21.638;2022-11-21T05:10:36;58.78;;;21.20;;
51692;SDS011;37777;53.066;21.638;2022-11-21T05:17:58;51.60;;;20.02;;
51692;SDS011;37777;53.066;21.638;2022-11-21T05:25:00;59.33;;;20.20;;
51692;SDS011;37777;53.066;21.638;2022-11-21T05:32:03;63.63;;;23.20;;
51692;SDS011;37777;53.066;21.638;2022-11-21T05:39:05;71.45;;;24.23;;
51692;SDS011;37777;53.066;21.638;2022-11-21T05:46:06;72.07;;;24.63;;
51692;SDS011;37777;53.066;21.638;2022-11-21T05:53:08;79.10;;;23.17;;
51692;SDS011;37777;53.066;21.638;2022-11-21T06:00:10;62.72;;;24.95;;
51692;SDS011;37777;53.066;21.638;2022-11-21T06:07:12;74.10;;;24.27;;
51692;SDS011;37777;53.066;21.638;2022-11-21T06:14:14;67.30;;;24.10;;
51692;SDS011;37777;53.066;21.638;2022-11-21T06:21:18;67.47;;;23.52;;
51692;SDS011;37777;53.066;21.638;2022-11-21T06:28:20;65.80;;;23.70;;
51692;SDS011;37777;53.066;21.638;2022-11-21T06:35:22;70.03;;;24.17;;
51692;SDS011;37777;53.066;21.638;2022-11-21T06:42:24;84.53;;;24.65;;
51692;SDS011;37777;53.066;21.638;2022-11-21T06:49:26;74.28;;;24.08;;
51692;SDS011;37777;53.066;21.638;2022-11-21T06:56:29;69.70;;;25.58;;
51692;SDS011;37777;53.066;21.638;2022-11-21T07:03:31;74.78;;;24.23;;
51692;SDS011;37777;53.066;21.638;2022-11-21T07:10:33;83.72;;;25.42;;
51692;SDS011;37777;53.066;21.638;2022-11-21T07:17:35;71.38;;;23.75;;
51692;SDS011;37777;53.066;21.638;2022-11-21T07:24:37;72.78;;;24.75;;
51692;SDS011;37777;53.066;21.638;2022-11-21T07:31:39;75.97;;;25.83;;
51692;SDS011;37777;53.066;21.638;2022-11-21T07:38:40;91.60;;;26.83;;
51692;SDS011;37777;53.066;21.638;2022-11-21T07:45:42;72.50;;;25.60;;
51692;SDS011;37777;53.066;21.638;2022-11-21T07:52:44;67.55;;;24.88;;
51692;SDS011;37777;53.066;21.638;2022-11-21T07:59:46;70.88;;;25.83;;
51692;SDS011;37777;53.066;21.638;2022-11-21T08:06:48;69.78;;;23.67;;
51692;SDS011;37777;53.066;21.638;2022-11-21T08:13:50;76.07;;;25.35;;
51692;SDS011;37777;53.066;21.638;2022-11-21T08:20:51;89.78;;;28.25;;
51692;SDS011;37777;53.066;21.638;2022-11-21T08:27:56;80.80;;;26.13;;
51692;SDS011;37777;53.066;21.638;2022-11-21T08:34:58;76.60;;;26.13;;
51692;SDS011;37777;53.066;21.638;2022-11-21T08:42:00;77.78;;;25.35;;
51692;SDS011;37777;53.066;21.638;2022-11-21T08:49:05;65.60;;;23.70;;
51692;SDS011;37777;53.066;21.638;2022-11-21T08:56:07;77.00;;;25.60;;
51692;SDS011;37777;53.066;21.638;2022-11-21T09:03:09;79.55;;;27.48;;
51692;SDS011;37777;53.066;21.638;2022-11-21T09:10:11;77.68;;;26.50;;
51692;SDS011;37777;53.066;21.638;2022-11-21T09:17:13;84.65;;;28.00;;
51692;SDS011;37777;53.066;21.638;2022-11-21T09:24:33;68.00;;;25.73;;
51692;SDS011;37777;53.066;21.638;2022-11-21T09:31:35;79.55;;;25.77;;
51692;SDS011;37777;53.066;21.638;2022-11-21T09:38:37;76.80;;;23.65;;
51692;SDS011;37777;53.066;21.638;2022-11-21T09:45:41;67.82;;;25.15;;
51692;SDS011;37777;53.066;21.638;2022-11-21T09:52:47;73.03;;;24.95;;
51692;SDS011;37777;53.066;21.638;2022-11-21T09:59:50;78.85;;;26.40;;
51692;SDS011;37777;53.066;21.638;2022-11-21T10:14:13;55.00;;;20.73;;
51692;SDS011;37777;53.066;21.638;2022-11-21T10:35:35;60.47;;;20.30;;
51692;SDS011;37777;53.066;21.638;2022-11-21T10:42:54;68.68;;;22.67;;
51692;SDS011;37777;53.066;21.638;2022-11-21T10:57:18;74.32;;;23.60;;
51692;SDS011;37777;53.066;21.638;2022-11-21T11:04:21;72.85;;;23.35;;
51692;SDS011;37777;53.066;21.638;2022-11-21T11:11:38;67.10;;;23.25;;
51692;SDS011;37777;53.066;21.638;2022-11-21T11:18:40;63.67;;;24.10;;
51692;SDS011;37777;53.066;21.638;2022-11-21T11:25:56;79.43;;;24.70;;
51692;SDS011;37777;53.066;21.638;2022-11-21T11:32:58;61.95;;;22.58;;
51692;SDS011;37777;53.066;21.638;2022-11-21T11:40:18;65.85;;;22.45;;
51692;SDS011;37777;53.066;21.638;2022-11-21T11:47:23;61.50;;;22.48;;
51692;SDS011;37777;53.066;21.638;2022-11-21T11:54:39;68.43;;;27.10;;
51692;SDS011;37777;53.066;21.638;2022-11-21T12:01:47;63.78;;;24.05;;
51692;SDS011;37777;53.066;21.638;2022-11-21T12:08:54;57.88;;;21.13;;
51692;SDS011;37777;53.066;21.638;2022-11-21T12:15:58;61.22;;;20.95;;
51692;SDS011;37777;53.066;21.638;2022-11-21T12:23:13;55.80;;;19.98;;
51692;SDS011;37777;53.066;21.638;2022-11-21T12:44:58;59.03;;;19.55;;
51692;SDS011;37777;53.066;21.638;2022-11-21T12:59:21;57.63;;;20.65;;
51692;SDS011;37777;53.066;21.638;2022-11-21T13:06:31;62.30;;;21.55;;
51692;SDS011;37777;53.066;21.638;2022-11-21T13:13:37;60.13;;;20.13;;
51692;SDS011;37777;53.066;21.638;2022-11-21T13:20:45;58.22;;;21.70;;
51692;SDS011;37777;53.066;21.638;2022-11-21T13:27:47;51.08;;;19.50;;
51692;SDS011;37777;53.066;21.638;2022-11-21T13:34:50;56.97;;;19.65;;
51692;SDS011;37777;53.066;21.638;2022-11-21T13:42:02;60.45;;;20.65;;
51692;SDS011;37777;53.066;21.638;2022-11-21T13:49:22;56.25;;;19.25;;
51692;SDS011;37777;53.066;21.638;2022-11-21T14:03:35;47.80;;;18.85;;
51692;SDS011;37777;53.066;21.638;2022-11-21T14:10:38;58.55;;;20.73;;
51692;SDS011;37777;53.066;21.638;2022-11-21T14:17:44;66.30;;;20.58;;
51692;SDS011;37777;53.066;21.638;2022-11-21T14:24:47;60.22;;;20.38;;
51692;SDS011;37777;53.066;21.638;2022-11-21T14:31:49;55.47;;;19.33;;
51692;SDS011;37777;53.066;21.638;2022-11-21T14:38:52;52.10;;;19.13;;
51692;SDS011;37777;53.066;21.638;2022-11-21T14:46:15;47.50;;;19.70;;
51692;SDS011;37777;53.066;21.638;2022-11-21T14:53:17;79.75;;;22.75;;
51692;SDS011;37777;53.066;21.638;2022-11-21T15:00:20;70.43;;;20.08;;
51692;SDS011;37777;53.066;21.638;2022-11-21T15:07:43;65.03;;;20.10;;
51692;SDS011;37777;53.066;21.638;2022-11-21T15:14:49;73.78;;;23.48;;
51692;SDS011;37777;53.066;21.638;2022-11-21T15:21:57;66.53;;;19.85;;
51692;SDS011;37777;53.066;21.638;2022-11-21T15:28:59;55.28;;;18.83;;
51692;SDS011;37777;53.066;21.638;2022-11-21T15:36:12;63.75;;;21.33;;
51692;SDS011;37777;53.066;21.638;2022-11-21T15:43:30;67.78;;;22.13;;
51692;SDS011;37777;53.066;21.638;2022-11-21T15:50:32;106.30;;;32.28;;
51692;SDS011;37777;53.066;21.638;2022-11-21T15:57:35;86.05;;;27.95;;
51692;SDS011;37777;53.066;21.638;2022-11-21T16:04:37;73.63;;;24.45;;
51692;SDS011;37777;53.066;21.638;2022-11-21T16:11:40;62.33;;;21.20;;
51692;SDS011;37777;53.066;21.638;2022-11-21T16:18:43;61.65;;;20.65;;
51692;SDS011;37777;53.066;21.638;2022-11-21T16:25:54;59.30;;;21.98;;
51692;SDS011;37777;53.066;21.638;2022-11-21T16:32:59;62.10;;;19.38;;
51692;SDS011;37777;53.066;21.638;2022-11-21T16:40:01;55.70;;;19.10;;
51692;SDS011;37777;53.066;21.638;2022-11-21T16:47:03;79.78;;;28.83;;
51692;SDS011;37777;53.066;21.638;2022-11-21T16:54:08;88.22;;;29.65;;
51692;SDS011;37777;53.066;21.638;2022-11-21T17:01:17;122.90;;;46.83;;
51692;SDS011;37777;53.066;21.638;2022-11-21T17:08:20;263.52;;;72.72;;
51692;SDS011;37777;53.066;21.638;2022-11-21T17:15:23;117.43;;;39.33;;
51692;SDS011;37777;53.066;21.638;2022-11-21T17:22:25;77.50;;;27.40;;
51692;SDS011;37777;53.066;21.638;2022-11-21T17:29:27;129.80;;;34.97;;
51692;SDS011;37777;53.066;21.638;2022-11-21T17:36:30;90.88;;;28.20;;
51692;SDS011;37777;53.066;21.638;2022-11-21T17:43:35;67.80;;;25.63;;
51692;SDS011;37777;53.066;21.638;2022-11-21T17:50:38;54.33;;;19.15;;
51692;SDS011;37777;53.066;21.638;2022-11-21T17:57:40;64.00;;;20.92;;
51692;SDS011;37777;53.066;21.638;2022-11-21T18:04:42;61.60;;;20.92;;
51692;SDS011;37777;53.066;21.638;2022-11-21T18:11:44;57.95;;;21.33;;
51692;SDS011;37777;53.066;21.638;2022-11-21T18:18:46;59.88;;;21.23;;
51692;SDS011;37777;53.066;21.638;2022-11-21T18:25:50;56.58;;;21.45;;
51692;SDS011;37777;53.066;21.638;2022-11-21T18:32:52;61.97;;;21.98;;
51692;SDS011;37777;53.066;21.638;2022-11-21T18:39:54;60.53;;;19.88;;
51692;SDS011;37777;53.066;21.638;2022-11-21T18:46:56;65.72;;;21.80;;
51692;SDS011;37777;53.066;21.638;2022-11-21T18:54:01;56.97;;;20.40;;
51692;SDS011;37777;53.066;21.638;2022-11-21T19:01:06;52.65;;;18.25;;
51692;SDS011;37777;53.066;21.638;2022-11-21T19:08:14;50.65;;;18.33;;
51692;SDS011;37777;53.066;21.638;2022-11-21T19:15:16;53.15;;;19.05;;
51692;SDS011;37777;53.066;21.638;2022-11-21T19:22:18;49.65;;;17.17;;
51692;SDS011;37777;53.066;21.638;2022-11-21T19:29:22;55.22;;;19.50;;
51692;SDS011;37777;53.066;21.638;2022-11-21T19:36:25;60.10;;;18.13;;
51692;SDS011;37777;53.066;21.638;2022-11-21T19:43:28;47.88;;;18.63;;
51692;SDS011;37777;53.066;21.638;2022-11-21T19:50:31;48.97;;;15.80;;
51692;SDS011;37777;53.066;21.638;2022-11-21T19:57:34;46.95;;;17.17;;
51692;SDS011;37777;53.066;21.638;2022-11-21T20:04:37;43.05;;;16.60;;
51692;SDS011;37777;53.066;21.638;2022-11-21T20:11:41;38.63;;;15.18;;
51692;SDS011;37777;53.066;21.638;2022-11-21T20:18:44;45.60;;;15.35;;
51692;SDS011;37777;53.066;21.638;2022-11-21T20:25:51;37.42;;;14.90;;
51692;SDS011;37777;53.066;21.638;2022-11-21T20:32:55;34.33;;;15.90;;
51692;SDS011;37777;53.066;21.638;2022-11-21T20:39:59;50.58;;;18.08;;
51692;SDS011;37777;53.066;21.638;2022-11-21T20:47:01;42.92;;;15.80;;
51692;SDS011;37777;53.066;21.638;2022-11-21T20:54:04;38.85;;;15.65;;
51692;SDS011;37777;53.066;21.638;2022-11-21T21:01:06;43.63;;;16.15;;
51692;SDS011;37777;53.066;21.638;2022-11-21T21:08:14;44.05;;;16.45;;
51692;SDS011;37777;53.066;21.638;2022-11-21T21:15:16;48.17;;;17.25;;
51692;SDS011;37777;53.066;21.638;2022-11-21T21:22:18;53.72;;;17.30;;
51692;SDS011;37777;53.066;21.638;2022-11-21T21:29:20;51.72;;;18.13;;
51692;SDS011;37777;53.066;21.638;2022-11-21T21:36:22;45.65;;;16.00;;
51692;SDS011;37777;53.066;21.638;2022-11-21T21:43:25;54.20;;;17.65;;
51692;SDS011;37777;53.066;21.638;2022-11-21T21:50:27;47.42;;;16.75;;
51692;SDS011;37777;53.066;21.638;2022-11-21T21:57:29;53.17;;;18.23;;
51692;SDS011;37777;53.066;21.638;2022-11-21T22:04:31;40.42;;;16.35;;
51692;SDS011;37777;53.066;21.638;2022-11-21T22:11:35;41.03;;;16.27;;
51692;SDS011;37777;53.066;21.638;2022-11-21T22:18:40;35.45;;;14.52;;
51692;SDS011;37777;53.066;21.638;2022-11-21T22:25:43;51.25;;;17.80;;
51692;SDS011;37777;53.066;21.638;2022-11-21T22:32:46;42.67;;;15.70;;
51692;SDS011;37777;53.066;21.638;2022-11-21T22:39:53;45.83;;;17.88;;
51692;SDS011;37777;53.066;21.638;2022-11-21T22:47:10;46.20;;;16.83;;
51692;SDS011;37777;53.066;21.638;2022-11-21T22:54:11;52.50;;;15.77;;
51692;SDS011;37777;53.066;21.638;2022-11-21T23:01:17;43.60;;;16.88;;
51692;SDS011;37777;53.066;21.638;2022-11-21T23:08:20;38.70;;;15.50;;
51692;SDS011;37777;53.066;21.638;2022-11-21T23:15:22;40.15;;;15.93;;
51692;SDS011;37777;53.066;21.638;2022-11-21T23:22:23;48.97;;;14.52;;
51692;SDS011;37777;53.066;21.638;2022-11-21T23:29:25;38.92;;;16.67;;
51692;SDS011;37777;53.066;21.638;2022-11-21T23:36:28;43.80;;;16.40;;
51692;SDS011;37777;53.066;21.638;2022-11-21T23:43:30;50.25;;;18.08;;
51692;SDS011;37777;53.066;21.638;2022-11-21T23:50:31;41.03;;;15.55;;
51692;SDS011;37777;53.066;21.638;2022-11-21T23:57:34;48.05;;;15.98;;
